Time;durP1;ratioP1;P1;durP2;ratioP2;P2;SDS_P1;SDS_P2;PMS_P1;PMS_P2;Temp;Humidity;BMP_temperature;BMP_pressure;BME280_temperature;BME280_humidity;BME280_pressure;Samples;Min_cycle;Max_cycle;Signal;HPM_P1;HPM_P2
2022/03/29 00:00:25;;;;;;;16.50;10.35;;;;;;;;;;4935503;29;20056;-66
2022/03/29 00:02:52;;;;;;;17.13;10.55;;;;;;;;;;4935829;29;20058;-65
2022/03/29 00:05:19;;;;;;;17.90;10.60;;;;;;;;;;4935790;29;20051;-65
2022/03/29 00:07:46;;;;;;;16.30;10.30;;;;;;;;;;4935835;29;20055;-65
2022/03/29 00:10:16;;;;;;;18.20;11.52;;;;;;;;;;4935486;29;20059;-66
2022/03/29 00:12:45;;;;;;;15.93;11.00;;;;;;;;;;4935381;29;20048;-64
2022/03/29 00:15:13;;;;;;;19.98;10.77;;;;;;;;;;4935326;29;20052;-65
2022/03/29 00:17:40;;;;;;;15.70;10.75;;;;;;;;;;4934762;29;20063;-65
2022/03/29 00:20:08;;;;;;;17.80;10.60;;;;;;;;;;4934867;29;20119;-65
2022/03/29 00:22:35;;;;;;;18.48;10.70;;;;;;;;;;4935082;29;20449;-65
2022/03/29 00:25:02;;;;;;;18.88;10.13;;;;;;;;;;4934826;29;20054;-65
2022/03/29 00:27:29;;;;;;;17.27;10.80;;;;;;;;;;4934561;29;20099;-66
2022/03/29 00:29:58;;;;;;;17.58;10.90;;;;;;;;;;4934638;29;20052;-66
2022/03/29 00:32:25;;;;;;;18.17;10.65;;;;;;;;;;4934576;29;20051;-65
2022/03/29 00:34:52;;;;;;;17.88;11.38;;;;;;;;;;4934564;29;20052;-65
2022/03/29 00:37:19;;;;;;;17.60;10.48;;;;;;;;;;4934948;29;20497;-64
2022/03/29 00:39:46;;;;;;;16.63;10.63;;;;;;;;;;4934696;29;20048;-65
2022/03/29 00:42:13;;;;;;;18.38;11.27;;;;;;;;;;4934613;29;20048;-65
2022/03/29 00:44:44;;;;;;;18.90;11.40;;;;;;;;;;4934645;29;20052;-65
2022/03/29 00:47:12;;;;;;;18.30;11.60;;;;;;;;;;4934677;29;20048;-64
2022/03/29 00:49:40;;;;;;;17.55;10.93;;;;;;;;;;4934408;29;20052;-65
2022/03/29 00:52:08;;;;;;;20.88;12.57;;;;;;;;;;4934473;29;20044;-65
2022/03/29 00:54:37;;;;;;;17.92;12.18;;;;;;;;;;4934467;29;20048;-65
2022/03/29 00:57:05;;;;;;;18.85;11.95;;;;;;;;;;4934550;29;20074;-65
2022/03/29 00:59:33;;;;;;;22.55;12.38;;;;;;;;;;4934436;29;20055;-66
2022/03/29 01:02:00;;;;;;;18.38;11.52;;;;;;;;;;4934416;29;20062;-66
2022/03/29 01:04:29;;;;;;;19.17;12.32;;;;;;;;;;4934363;29;20044;-64
2022/03/29 01:06:58;;;;;;;18.48;11.73;;;;;;;;;;4934662;29;20433;-65
2022/03/29 01:09:26;;;;;;;20.75;12.68;;;;;;;;;;4937984;29;20111;-65
2022/03/29 01:11:54;;;;;;;20.38;13.10;;;;;;;;;;4937880;29;20043;-65
2022/03/29 01:14:21;;;;;;;18.70;12.18;;;;;;;;;;4937972;29;20047;-65
2022/03/29 01:19:36;;;;;;;22.30;13.65;;;;;;;;;;4937995;29;20528;-64
2022/03/29 01:22:07;;;;;;;21.52;12.52;;;;;;;;;;4937885;29;20055;-65
2022/03/29 01:24:36;;;;;;;22.90;14.32;;;;;;;;;;4938090;29;20445;-64
2022/03/29 01:27:05;;;;;;;23.67;14.38;;;;;;;;;;4937760;29;20048;-64
2022/03/29 01:29:33;;;;;;;22.95;13.60;;;;;;;;;;4937464;29;20058;-65
2022/03/29 01:32:04;;;;;;;24.00;14.40;;;;;;;;;;4937628;29;20052;-64
2022/03/29 01:34:32;;;;;;;23.45;14.73;;;;;;;;;;4937618;29;20043;-65
2022/03/29 01:37:00;;;;;;;22.30;14.27;;;;;;;;;;4937482;29;20398;-64
2022/03/29 01:39:28;;;;;;;22.55;15.10;;;;;;;;;;4937797;29;20107;-65
2022/03/29 01:41:55;;;;;;;21.70;14.85;;;;;;;;;;4937523;29;20062;-64
2022/03/29 01:44:22;;;;;;;22.88;14.85;;;;;;;;;;4937356;29;20058;-65
2022/03/29 01:46:50;;;;;;;24.50;15.38;;;;;;;;;;4937674;29;20130;-64
2022/03/29 01:49:18;;;;;;;21.35;14.10;;;;;;;;;;4937226;29;20052;-65
2022/03/29 01:51:45;;;;;;;23.25;14.13;;;;;;;;;;4937339;29;20517;-65
2022/03/29 01:54:12;;;;;;;23.15;14.43;;;;;;;;;;4937039;29;20353;-64
2022/03/29 01:56:40;;;;;;;20.75;13.95;;;;;;;;;;4937330;29;20051;-65
2022/03/29 01:59:10;;;;;;;21.67;13.95;;;;;;;;;;4937209;29;20056;-65
2022/03/29 02:01:41;;;;;;;21.50;14.10;;;;;;;;;;4937291;29;20047;-65
2022/03/29 02:04:09;;;;;;;22.27;14.45;;;;;;;;;;4937145;29;20048;-65
2022/03/29 02:06:36;;;;;;;21.45;13.70;;;;;;;;;;4937200;29;20058;-65
2022/03/29 02:09:06;;;;;;;19.60;13.00;;;;;;;;;;4936971;29;20091;-65
2022/03/29 02:11:33;;;;;;;21.08;13.50;;;;;;;;;;4937235;29;20059;-65
2022/03/29 02:14:02;;;;;;;23.20;14.48;;;;;;;;;;4936925;29;20133;-65
2022/03/29 02:16:28;;;;;;;23.90;13.85;;;;;;;;;;4936945;29;20048;-66
2022/03/29 02:18:56;;;;;;;22.60;14.00;;;;;;;;;;4935691;29;20047;-63
2022/03/29 02:21:23;;;;;;;19.95;13.02;;;;;;;;;;4937178;29;20044;-66
2022/03/29 02:23:50;;;;;;;18.77;12.55;;;;;;;;;;4936705;29;20478;-66
2022/03/29 02:26:17;;;;;;;23.08;13.55;;;;;;;;;;4936580;29;20055;-66
2022/03/29 02:28:44;;;;;;;21.52;14.25;;;;;;;;;;4936559;29;20052;-67
2022/03/29 02:31:12;;;;;;;19.45;13.43;;;;;;;;;;4936327;29;20505;-66
2022/03/29 02:33:39;;;;;;;21.17;14.43;;;;;;;;;;4936551;29;20047;-66
2022/03/29 02:36:08;;;;;;;18.95;11.90;;;;;;;;;;4936320;29;20055;-66
2022/03/29 02:38:35;;;;;;;21.13;13.18;;;;;;;;;;4936906;29;20521;-66
2022/03/29 02:41:02;;;;;;;21.35;12.88;;;;;;;;;;4936487;29;20413;-66
2022/03/29 02:43:29;;;;;;;20.38;12.65;;;;;;;;;;4936111;29;20056;-66
2022/03/29 02:45:57;;;;;;;22.52;13.35;;;;;;;;;;4936005;29;20058;-66
2022/03/29 02:48:25;;;;;;;25.20;13.05;;;;;;;;;;4935937;29;20058;-65
2022/03/29 02:50:52;;;;;;;22.45;14.23;;;;;;;;;;4936073;29;20099;-66
2022/03/29 02:53:19;;;;;;;21.35;12.65;;;;;;;;;;4935894;29;20048;-66
2022/03/29 02:55:46;;;;;;;22.40;13.30;;;;;;;;;;4936271;29;20048;-67
2022/03/29 02:58:13;;;;;;;21.02;12.80;;;;;;;;;;4935724;29;20069;-67
2022/03/29 03:00:40;;;;;;;21.65;13.10;;;;;;;;;;4935824;29;20056;-67
2022/03/29 03:03:07;;;;;;;19.45;12.48;;;;;;;;;;4935668;29;20131;-67
2022/03/29 03:05:35;;;;;;;21.50;13.30;;;;;;;;;;4935708;29;20048;-66
2022/03/29 03:08:02;;;;;;;22.45;12.95;;;;;;;;;;4935757;29;20048;-68
2022/03/29 03:10:30;;;;;;;21.98;13.65;;;;;;;;;;4935817;29;20052;-67
2022/03/29 03:12:57;;;;;;;18.70;12.43;;;;;;;;;;4935930;29;20516;-66
2022/03/29 03:15:25;;;;;;;22.27;13.98;;;;;;;;;;4935768;29;20056;-68
2022/03/29 03:17:52;;;;;;;24.90;13.52;;;;;;;;;;4935772;29;20055;-67
2022/03/29 03:20:21;;;;;;;22.33;13.15;;;;;;;;;;4935902;29;20051;-67
2022/03/29 03:22:50;;;;;;;21.35;12.70;;;;;;;;;;4936002;29;20059;-67
2022/03/29 03:25:17;;;;;;;20.67;12.30;;;;;;;;;;4935134;29;20063;-67
2022/03/29 03:27:44;;;;;;;20.02;14.35;;;;;;;;;;4935599;29;20059;-67
2022/03/29 03:30:13;;;;;;;21.23;12.35;;;;;;;;;;4934928;29;20048;-67
2022/03/29 03:32:41;;;;;;;20.58;13.25;;;;;;;;;;4935254;29;20051;-67
2022/03/29 03:35:08;;;;;;;24.77;13.50;;;;;;;;;;4935190;29;20083;-67
2022/03/29 03:37:35;;;;;;;19.88;12.63;;;;;;;;;;4935419;29;20052;-66
2022/03/29 03:40:04;;;;;;;23.10;12.48;;;;;;;;;;4935155;29;20417;-68
2022/03/29 03:42:31;;;;;;;20.10;11.75;;;;;;;;;;4935134;29;20063;-67
2022/03/29 03:44:58;;;;;;;19.35;11.85;;;;;;;;;;4927968;29;20051;-67
2022/03/29 03:47:26;;;;;;;23.88;13.95;;;;;;;;;;4916234;29;20048;-66
2022/03/29 03:49:53;;;;;;;23.05;13.25;;;;;;;;;;4916174;29;20080;-67
2022/03/29 03:52:20;;;;;;;21.90;12.98;;;;;;;;;;4915994;29;20048;-67
2022/03/29 03:54:47;;;;;;;21.02;12.35;;;;;;;;;;4915861;29;20055;-67
2022/03/29 03:57:15;;;;;;;22.02;14.55;;;;;;;;;;4916183;29;20055;-68
2022/03/29 03:59:42;;;;;;;24.92;14.55;;;;;;;;;;4915855;29;20044;-67
2022/03/29 04:02:09;;;;;;;22.80;14.43;;;;;;;;;;4915998;29;20054;-67
2022/03/29 04:04:36;;;;;;;24.20;16.20;;;;;;;;;;4915913;29;20402;-67
2022/03/29 04:07:03;;;;;;;23.42;14.85;;;;;;;;;;4915751;29;20063;-68
2022/03/29 04:09:30;;;;;;;22.83;13.43;;;;;;;;;;4915784;29;20051;-66
2022/03/29 04:11:57;;;;;;;23.65;14.73;;;;;;;;;;4916220;29;20515;-66
2022/03/29 04:14:25;;;;;;;22.13;14.02;;;;;;;;;;4915623;29;20421;-67
2022/03/29 04:16:52;;;;;;;22.63;14.30;;;;;;;;;;4915633;29;20048;-67
2022/03/29 04:19:19;;;;;;;24.42;12.85;;;;;;;;;;4915987;29;20387;-67
2022/03/29 04:21:46;;;;;;;27.50;14.90;;;;;;;;;;4915724;29;20395;-67
2022/03/29 04:24:13;;;;;;;24.23;14.13;;;;;;;;;;4915892;29;20474;-67
2022/03/29 04:26:40;;;;;;;22.52;14.27;;;;;;;;;;4915487;29;20063;-67
2022/03/29 04:29:07;;;;;;;23.15;13.80;;;;;;;;;;4915945;29;20509;-66
2022/03/29 04:31:37;;;;;;;24.02;14.57;;;;;;;;;;4915250;29;20253;-67
2022/03/29 04:34:05;;;;;;;21.95;12.90;;;;;;;;;;4916568;29;20050;-66
2022/03/29 04:36:33;;;;;;;19.67;12.38;;;;;;;;;;4916130;29;20056;-66
2022/03/29 04:39:00;;;;;;;18.50;12.15;;;;;;;;;;4915599;29;20450;-66
2022/03/29 04:41:27;;;;;;;21.70;12.48;;;;;;;;;;4915984;29;20403;-68
2022/03/29 04:43:53;;;;;;;19.98;11.35;;;;;;;;;;4919256;29;20417;-66
2022/03/29 04:46:20;;;;;;;22.63;11.43;;;;;;;;;;4936769;29;20056;-66
2022/03/29 04:48:52;;;;;;;21.80;12.55;;;;;;;;;;4938703;29;20445;-66
2022/03/29 04:51:19;;;;;;;23.27;12.90;;;;;;;;;;4938494;29;20150;-66
2022/03/29 04:53:45;;;;;;;23.90;15.43;;;;;;;;;;4938223;29;20394;-66
2022/03/29 04:56:12;;;;;;;26.45;14.40;;;;;;;;;;4938006;29;20054;-66
2022/03/29 04:58:39;;;;;;;25.45;14.63;;;;;;;;;;4938467;29;20517;-67
2022/03/29 05:01:06;;;;;;;24.23;14.45;;;;;;;;;;4938002;29;20073;-66
2022/03/29 05:03:33;;;;;;;23.00;13.85;;;;;;;;;;4938406;29;20058;-67
2022/03/29 05:06:02;;;;;;;24.45;14.00;;;;;;;;;;4937845;29;20052;-67
2022/03/29 05:08:29;;;;;;;21.85;13.50;;;;;;;;;;4937928;29;20058;-66
2022/03/29 05:10:56;;;;;;;24.27;14.52;;;;;;;;;;4938529;29;20056;-66
2022/03/29 05:13:23;;;;;;;23.95;14.02;;;;;;;;;;4938781;29;20048;-66
2022/03/29 05:15:50;;;;;;;25.38;14.38;;;;;;;;;;4946912;23;20417;-66
2022/03/29 05:18:17;;;;;;;26.15;14.18;;;;;;;;;;4938603;29;20055;-66
2022/03/29 05:20:44;;;;;;;22.05;13.18;;;;;;;;;;4938430;29;20051;-66
2022/03/29 05:23:12;;;;;;;19.73;13.40;;;;;;;;;;4938043;29;20051;-65
2022/03/29 05:25:39;;;;;;;20.95;13.60;;;;;;;;;;4937754;29;20074;-66
2022/03/29 05:28:08;;;;;;;22.88;13.07;;;;;;;;;;4937699;29;20568;-66
2022/03/29 05:30:35;;;;;;;22.85;14.80;;;;;;;;;;4952231;29;20061;-65
2022/03/29 05:33:03;;;;;;;22.92;13.25;;;;;;;;;;4957893;28;20055;-64
2022/03/29 05:35:31;;;;;;;22.77;14.40;;;;;;;;;;4953464;23;20051;-62
2022/03/29 05:38:00;;;;;;;22.13;13.40;;;;;;;;;;4938325;29;20466;-63
2022/03/29 05:40:29;;;;;;;22.23;11.55;;;;;;;;;;4937861;29;20058;-63
2022/03/29 05:42:57;;;;;;;20.60;12.05;;;;;;;;;;4938384;29;20111;-62
2022/03/29 05:45:24;;;;;;;22.70;12.75;;;;;;;;;;4937817;29;20059;-63
2022/03/29 05:50:36;;;;;;;17.73;12.15;;;;;;;;;;4936178;29;20130;-62
2022/03/29 05:53:03;;;;;;;20.67;12.57;;;;;;;;;;4936466;29;20481;-63
2022/03/29 05:55:31;;;;;;;20.23;12.60;;;;;;;;;;4936263;29;20047;-62
2022/03/29 05:57:59;;;;;;;20.90;13.23;;;;;;;;;;4936285;29;20048;-62
2022/03/29 06:00:27;;;;;;;20.90;12.90;;;;;;;;;;4935777;29;20055;-62
2022/03/29 06:02:54;;;;;;;24.38;14.23;;;;;;;;;;4935817;29;20052;-62
2022/03/29 06:05:22;;;;;;;24.77;15.00;;;;;;;;;;4936433;29;20473;-62
2022/03/29 06:07:50;;;;;;;25.90;15.52;;;;;;;;;;4936006;29;20059;-62
2022/03/29 06:10:17;;;;;;;24.55;14.20;;;;;;;;;;4935920;29;20110;-62
2022/03/29 06:12:47;;;;;;;26.70;14.45;;;;;;;;;;4935836;29;20051;-62
2022/03/29 06:15:15;;;;;;;22.42;13.90;;;;;;;;;;4935172;29;20142;-62
2022/03/29 06:17:43;;;;;;;24.25;14.55;;;;;;;;;;4935517;29;20565;-62
2022/03/29 06:20:11;;;;;;;26.30;13.60;;;;;;;;;;4935841;29;20137;-62
2022/03/29 06:22:40;;;;;;;24.77;14.50;;;;;;;;;;4936002;29;20055;-62
2022/03/29 06:25:08;;;;;;;22.20;12.68;;;;;;;;;;4935890;29;20087;-62
2022/03/29 06:27:35;;;;;;;24.65;13.38;;;;;;;;;;4935880;29;20703;-62
2022/03/29 06:30:04;;;;;;;23.55;14.65;;;;;;;;;;4935655;29;20056;-63
2022/03/29 06:32:32;;;;;;;23.08;14.65;;;;;;;;;;4935544;29;20437;-62
2022/03/29 06:34:59;;;;;;;22.05;13.32;;;;;;;;;;4935394;29;20051;-62
2022/03/29 06:37:26;;;;;;;22.13;13.38;;;;;;;;;;4935868;29;20065;-62
2022/03/29 06:39:53;;;;;;;20.88;13.10;;;;;;;;;;4935783;29;20052;-62
2022/03/29 06:42:20;;;;;;;22.08;14.40;;;;;;;;;;4935597;29;20052;-63
2022/03/29 06:44:47;;;;;;;26.05;15.40;;;;;;;;;;4935741;29;20055;-62
2022/03/29 06:47:16;;;;;;;26.67;15.10;;;;;;;;;;4935023;29;20159;-62
2022/03/29 06:49:43;;;;;;;22.60;14.60;;;;;;;;;;4935309;29;20043;-63
2022/03/29 06:52:13;;;;;;;23.60;14.35;;;;;;;;;;4935889;29;20055;-62
2022/03/29 06:54:40;;;;;;;21.67;13.02;;;;;;;;;;4935584;29;20059;-61
2022/03/29 06:57:08;;;;;;;22.45;13.38;;;;;;;;;;4935290;29;20107;-62
2022/03/29 06:59:35;;;;;;;20.77;12.27;;;;;;;;;;4934983;29;20100;-62
2022/03/29 07:02:02;;;;;;;19.52;11.93;;;;;;;;;;4934760;29;20052;-63
2022/03/29 07:04:30;;;;;;;19.77;13.02;;;;;;;;;;4934652;29;20052;-63
2022/03/29 07:06:57;;;;;;;19.13;11.77;;;;;;;;;;4934707;29;20066;-63
2022/03/29 07:12:08;;;;;;;20.05;12.73;;;;;;;;;;4934924;29;20083;-63
2022/03/29 07:14:36;;;;;;;21.80;12.55;;;;;;;;;;4934818;29;20055;-63
2022/03/29 07:17:05;;;;;;;20.38;11.90;;;;;;;;;;4934458;29;20056;-62
2022/03/29 07:19:33;;;;;;;20.40;11.52;;;;;;;;;;4934413;29;20059;-62
2022/03/29 07:22:00;;;;;;;19.48;11.93;;;;;;;;;;4934541;29;20052;-63
2022/03/29 07:24:27;;;;;;;22.98;12.18;;;;;;;;;;4934901;29;20091;-63
2022/03/29 07:26:54;;;;;;;19.20;11.80;;;;;;;;;;4934510;29;20062;-63
2022/03/29 07:29:21;;;;;;;19.90;11.27;;;;;;;;;;4934569;29;20485;-63
2022/03/29 07:31:48;;;;;;;20.55;12.10;;;;;;;;;;4934487;29;20051;-65
2022/03/29 07:34:16;;;;;;;19.70;11.70;;;;;;;;;;4934337;29;20531;-63
2022/03/29 07:36:44;;;;;;;19.15;12.10;;;;;;;;;;4933831;29;20052;-63
2022/03/29 07:39:14;;;;;;;16.45;10.70;;;;;;;;;;4934038;29;20501;-63
2022/03/29 07:41:41;;;;;;;16.63;11.75;;;;;;;;;;4934591;29;20227;-63
2022/03/29 07:44:08;;;;;;;18.33;10.60;;;;;;;;;;4934549;29;20059;-63
2022/03/29 07:46:35;;;;;;;18.17;10.88;;;;;;;;;;4953441;29;20059;-63
2022/03/29 07:49:03;;;;;;;17.20;10.07;;;;;;;;;;4953560;28;20051;-63
2022/03/29 07:51:29;;;;;;;16.23;9.70;;;;;;;;;;4953286;28;20074;-63
2022/03/29 07:53:58;;;;;;;16.85;10.20;;;;;;;;;;4953177;28;20416;-63
2022/03/29 07:56:25;;;;;;;18.38;10.18;;;;;;;;;;4952531;29;20058;-63
2022/03/29 07:58:52;;;;;;;18.60;9.73;;;;;;;;;;4935744;28;20468;-65
2022/03/29 08:01:19;;;;;;;17.60;10.93;;;;;;;;;;4934519;29;20083;-65
2022/03/29 08:03:46;;;;;;;18.00;10.52;;;;;;;;;;4934047;29;20493;-63
2022/03/29 08:06:13;;;;;;;18.48;11.02;;;;;;;;;;4933835;29;20047;-62
2022/03/29 08:08:41;;;;;;;17.60;9.95;;;;;;;;;;4933280;29;20051;-62
2022/03/29 08:11:09;;;;;;;18.42;11.05;;;;;;;;;;4934917;29;20056;-62
2022/03/29 08:13:36;;;;;;;18.08;9.80;;;;;;;;;;4939870;29;20039;-62
2022/03/29 08:16:03;;;;;;;17.13;10.48;;;;;;;;;;4952933;28;20051;-62
2022/03/29 08:18:31;;;;;;;16.80;10.52;;;;;;;;;;4952269;29;20051;-62
2022/03/29 08:20:57;;;;;;;16.23;10.02;;;;;;;;;;4952732;28;20061;-61
2022/03/29 08:23:26;;;;;;;17.10;9.77;;;;;;;;;;4952828;29;20063;-61
2022/03/29 08:25:53;;;;;;;17.08;9.45;;;;;;;;;;4952572;28;20055;-63
2022/03/29 08:28:21;;;;;;;21.23;10.63;;;;;;;;;;4953301;28;20493;-62
2022/03/29 08:30:48;;;;;;;15.10;9.77;;;;;;;;;;4943381;29;20090;-62
2022/03/29 08:33:15;;;;;;;16.85;10.48;;;;;;;;;;4933519;29;20517;-60
2022/03/29 08:35:45;;;;;;;17.35;10.38;;;;;;;;;;4933074;29;20055;-61
2022/03/29 08:38:11;;;;;;;17.08;10.27;;;;;;;;;;4950148;29;20047;-62
2022/03/29 08:40:40;;;;;;;18.23;11.02;;;;;;;;;;4952908;29;20047;-61
2022/03/29 08:43:08;;;;;;;16.50;10.30;;;;;;;;;;4934013;29;20274;-61
2022/03/29 08:45:41;;;;;;;16.73;10.57;;;;;;;;;;4935451;29;20058;-61
2022/03/29 08:48:09;;;;;;;19.17;11.00;;;;;;;;;;4933211;29;20051;-61
2022/03/29 08:50:38;;;;;;;16.25;9.75;;;;;;;;;;4932339;29;20071;-61
2022/03/29 08:53:07;;;;;;;20.25;11.30;;;;;;;;;;4934160;29;20493;-61
2022/03/29 08:55:34;;;;;;;17.02;10.93;;;;;;;;;;4933420;29;20051;-60
2022/03/29 08:58:01;;;;;;;18.75;10.40;;;;;;;;;;4933153;29;20075;-61
2022/03/29 09:00:28;;;;;;;18.65;11.02;;;;;;;;;;4932822;29;20067;-61
2022/03/29 09:02:57;;;;;;;18.58;10.68;;;;;;;;;;4932809;29;20062;-61
2022/03/29 09:05:26;;;;;;;18.70;10.63;;;;;;;;;;4940911;29;20043;-62
2022/03/29 09:07:55;;;;;;;18.65;10.52;;;;;;;;;;4944229;28;20054;-62
2022/03/29 09:10:23;;;;;;;18.33;10.63;;;;;;;;;;4952405;28;20453;-62
2022/03/29 09:12:50;;;;;;;16.33;10.30;;;;;;;;;;4952365;29;20393;-62
2022/03/29 09:15:17;;;;;;;17.88;10.57;;;;;;;;;;4950125;29;20113;-62
2022/03/29 09:17:46;;;;;;;16.45;10.45;;;;;;;;;;4931778;29;20051;-62
2022/03/29 09:20:20;;;;;;;17.70;10.48;;;;;;;;;;4933612;29;20492;-62
2022/03/29 09:22:49;;;;;;;18.17;10.50;;;;;;;;;;4933504;29;20091;-62
2022/03/29 09:25:18;;;;;;;18.23;10.88;;;;;;;;;;4933577;29;20521;-62
2022/03/29 09:27:57;;;;;;;17.98;10.70;;;;;;;;;;4932355;29;20059;-61
2022/03/29 09:30:25;;;;;;;16.55;10.77;;;;;;;;;;4937219;29;20528;-62
2022/03/29 09:32:58;;;;;;;19.15;11.80;;;;;;;;;;4937095;29;20067;-62
2022/03/29 09:35:26;;;;;;;18.60;11.20;;;;;;;;;;4937423;29;20094;-62
2022/03/29 09:37:53;;;;;;;15.82;10.23;;;;;;;;;;4936659;29;20052;-62
2022/03/29 09:40:20;;;;;;;18.10;10.85;;;;;;;;;;4936600;29;20059;-62
2022/03/29 09:43:01;;;;;;;18.33;10.45;;;;;;;;;;4935918;29;20110;-62
2022/03/29 09:45:40;;;;;;;;;;;;;;;;;;4948178;29;20055;-62
2022/03/29 09:48:26;;;;;;;16.38;11.13;;;;;;;;;;4949240;28;19923;-62
2022/03/29 09:50:59;;;;;;;14.77;10.32;;;;;;;;;;4936438;29;20051;-62
2022/03/29 09:53:40;;;;;;;19.63;10.38;;;;;;;;;;4936592;29;20048;-61
2022/03/29 09:56:08;;;;;;;21.45;11.15;;;;;;;;;;4936456;29;20497;-62
2022/03/29 09:58:36;;;;;;;18.98;10.52;;;;;;;;;;4936374;29;20052;-62
2022/03/29 10:01:04;;;;;;;16.77;10.65;;;;;;;;;;4936223;29;20052;-62
2022/03/29 10:03:33;;;;;;;20.33;11.70;;;;;;;;;;4936140;29;20421;-62
2022/03/29 10:06:04;;;;;;;17.15;11.27;;;;;;;;;;4936305;29;20119;-62
2022/03/29 10:11:21;;;;;;;19.23;11.10;;;;;;;;;;4936295;29;20077;-61
2022/03/29 10:13:49;;;;;;;19.70;12.27;;;;;;;;;;4935914;29;20099;-62
2022/03/29 10:16:17;;;;;;;18.58;11.20;;;;;;;;;;4936024;29;20548;-62
2022/03/29 10:18:45;;;;;;;18.38;10.75;;;;;;;;;;4935682;29;20052;-62
2022/03/29 10:21:15;;;;;;;17.85;10.75;;;;;;;;;;4936247;29;20409;-62
2022/03/29 10:23:45;;;;;;;18.65;11.63;;;;;;;;;;4935910;29;20048;-62
2022/03/29 10:26:17;;;;;;;19.02;11.65;;;;;;;;;;4936454;29;20111;-62
2022/03/29 10:28:47;;;;;;;16.65;11.60;;;;;;;;;;4936324;29;20062;-62
2022/03/29 10:31:27;;;;;;;20.57;11.80;;;;;;;;;;4936252;29;20060;-61
2022/03/29 10:34:13;;;;;;;19.10;11.27;;;;;;;;;;4936231;29;20051;-61
2022/03/29 10:37:10;;;;;;;18.25;10.88;;;;;;;;;;4935725;29;20402;-61
2022/03/29 10:39:56;;;;;;;16.40;10.85;;;;;;;;;;4934827;29;20075;-61
2022/03/29 10:42:37;;;;;;;19.25;11.35;;;;;;;;;;4936199;29;20087;-61
2022/03/29 10:45:19;;;;;;;17.20;10.48;;;;;;;;;;4935478;29;20107;-60
2022/03/29 10:47:47;;;;;;;16.65;10.95;;;;;;;;;;4935660;29;20111;-62
2022/03/29 10:50:16;;;;;;;18.08;11.85;;;;;;;;;;4935331;29;20131;-61
2022/03/29 10:52:46;;;;;;;17.77;10.82;;;;;;;;;;4935202;29;20576;-61
2022/03/29 10:55:21;;;;;;;18.02;10.85;;;;;;;;;;4934934;29;20052;-61
2022/03/29 10:58:13;;;;;;;16.58;10.65;;;;;;;;;;4934986;29;20056;-60
2022/03/29 11:00:42;;;;;;;21.83;11.90;;;;;;;;;;4934954;29;20678;-60
2022/03/29 11:03:20;;;;;;;21.08;11.45;;;;;;;;;;4935329;29;20056;-60
2022/03/29 11:06:10;;;;;;;18.80;11.10;;;;;;;;;;4935062;29;20127;-62
2022/03/29 11:08:41;;;;;;;20.35;11.43;;;;;;;;;;4934379;29;20115;-61
2022/03/29 11:11:09;;;;;;;17.13;11.77;;;;;;;;;;4934471;29;20055;-62
2022/03/29 11:13:38;;;;;;;18.77;11.07;;;;;;;;;;4934321;29;20052;-64
2022/03/29 11:16:29;;;;;;;21.08;11.00;;;;;;;;;;4934322;29;20153;-64
2022/03/29 11:18:57;;;;;;;19.42;10.73;;;;;;;;;;4928684;29;20059;-61
2022/03/29 11:21:48;;;;;;;17.08;11.57;;;;;;;;;;4934122;29;20054;-62
2022/03/29 11:24:21;;;;;;;20.67;10.98;;;;;;;;;;4934313;29;20417;-60
2022/03/29 11:26:57;;;;;;;20.08;11.90;;;;;;;;;;4934159;29;20044;-61
2022/03/29 11:29:24;;;;;;;17.55;10.48;;;;;;;;;;4934529;29;20048;-61
2022/03/29 11:31:54;;;;;;;16.13;10.45;;;;;;;;;;4934086;29;20052;-61
2022/03/29 11:34:21;;;;;;;18.90;11.73;;;;;;;;;;4952881;23;20151;-80
2022/03/29 11:36:48;;;;;;;18.17;10.02;;;;;;;;;;4918891;29;20052;-81
2022/03/29 11:39:24;;;;;;;19.23;10.80;;;;;;;;;;4919776;29;20048;-80
2022/03/29 11:41:54;;;;;;;18.17;10.80;;;;;;;;;;4920587;29;20040;-80
2022/03/29 11:44:23;;;;;;;17.67;11.93;;;;;;;;;;4919712;29;20056;-80
2022/03/29 11:46:52;;;;;;;16.25;10.35;;;;;;;;;;4919109;29;20543;-81
2022/03/29 11:49:19;;;;;;;19.27;10.48;;;;;;;;;;4918881;29;20056;-81
2022/03/29 11:52:02;;;;;;;17.70;10.85;;;;;;;;;;4922257;29;20056;-81
2022/03/29 11:54:30;;;;;;;16.13;10.73;;;;;;;;;;4920063;29;20055;-79
2022/03/29 11:56:57;;;;;;;17.80;10.40;;;;;;;;;;4919577;29;20050;-81
2022/03/29 11:59:32;;;;;;;15.50;9.60;;;;;;;;;;4920627;29;20121;-81
2022/03/29 12:02:05;;;;;;;15.75;8.77;;;;;;;;;;4919876;29;20079;-80
2022/03/29 12:04:34;;;;;;;12.88;8.35;;;;;;;;;;4919572;29;20135;-80
2022/03/29 12:07:01;;;;;;;13.77;8.70;;;;;;;;;;4920654;29;20094;-80
2022/03/29 12:09:27;;;;;;;15.25;9.38;;;;;;;;;;4919735;29;20052;-80
2022/03/29 12:11:59;;;;;;;15.93;9.10;;;;;;;;;;4919509;29;20056;-80
2022/03/29 12:14:27;;;;;;;15.57;9.57;;;;;;;;;;4919331;29;20503;-80
2022/03/29 12:16:58;;;;;;;12.23;9.60;;;;;;;;;;4918953;29;20431;-81
2022/03/29 12:19:27;;;;;;;15.25;9.60;;;;;;;;;;4919392;29;20048;-80
2022/03/29 12:21:56;;;;;;;14.73;8.90;;;;;;;;;;4918187;29;20128;-79
2022/03/29 12:24:25;;;;;;;16.88;9.98;;;;;;;;;;4917528;29;20048;-80
2022/03/29 12:26:55;;;;;;;16.77;10.20;;;;;;;;;;4918235;29;20573;-81
2022/03/29 12:29:26;;;;;;;18.52;10.00;;;;;;;;;;4917714;29;20392;-81
2022/03/29 12:31:54;;;;;;;14.65;10.05;;;;;;;;;;4919566;29;20460;-80
2022/03/29 12:34:25;;;;;;;15.85;11.02;;;;;;;;;;4920015;29;20044;-80
2022/03/29 12:36:53;;;;;;;14.30;10.02;;;;;;;;;;4924237;29;20551;-80
2022/03/29 12:39:20;;;;;;;15.05;9.27;;;;;;;;;;4933588;29;20063;-79
2022/03/29 12:41:52;;;;;;;14.35;9.73;;;;;;;;;;4935336;29;20077;-80
2022/03/29 12:44:32;;;;;;;13.55;8.15;;;;;;;;;;4940678;29;20052;-80
2022/03/29 12:47:00;;;;;;;13.40;9.43;;;;;;;;;;4955715;29;20052;-80
2022/03/29 12:49:28;;;;;;;16.05;9.18;;;;;;;;;;4949754;29;20310;-79
2022/03/29 12:51:56;;;;;;;15.18;9.00;;;;;;;;;;4939655;29;20419;-80
2022/03/29 12:54:34;;;;;;;15.30;8.73;;;;;;;;;;4938787;29;20054;-81
2022/03/29 12:57:01;;;;;;;14.18;8.80;;;;;;;;;;4940063;29;20126;-80
2022/03/29 12:59:34;;;;;;;14.15;9.07;;;;;;;;;;4939374;29;20048;-80
2022/03/29 13:02:10;;;;;;;14.68;8.48;;;;;;;;;;4941502;29;20066;-79
2022/03/29 13:04:38;;;;;;;16.00;9.13;;;;;;;;;;4943802;29;20063;-80
2022/03/29 13:07:05;;;;;;;14.38;8.50;;;;;;;;;;4944794;29;20475;-81
2022/03/29 13:09:32;;;;;;;12.77;7.97;;;;;;;;;;4944723;29;20055;-81
2022/03/29 13:12:14;;;;;;;15.23;8.95;;;;;;;;;;4946739;29;20051;-80
2022/03/29 13:14:45;;;;;;;14.02;9.05;;;;;;;;;;4945980;29;20083;-81
2022/03/29 13:17:13;;;;;;;15.18;9.55;;;;;;;;;;4945675;29;20043;-82
2022/03/29 13:19:52;;;;;;;17.95;9.48;;;;;;;;;;4946621;29;20083;-81
2022/03/29 13:22:20;;;;;;;14.68;9.30;;;;;;;;;;4946942;29;20054;-79
2022/03/29 13:24:47;;;;;;;12.82;8.95;;;;;;;;;;4946399;29;20506;-81
2022/03/29 13:27:14;;;;;;;13.30;9.23;;;;;;;;;;4945991;29;20685;-80
2022/03/29 13:29:42;;;;;;;16.52;10.20;;;;;;;;;;4944923;29;20052;-79
2022/03/29 13:32:10;;;;;;;17.55;9.80;;;;;;;;;;4947300;29;20055;-80
2022/03/29 13:34:37;;;;;;;16.27;9.15;;;;;;;;;;4945195;29;20051;-80
2022/03/29 13:37:04;;;;;;;15.88;10.27;;;;;;;;;;4945728;29;20513;-80
2022/03/29 13:39:31;;;;;;;16.77;10.20;;;;;;;;;;4945998;29;20052;-79
2022/03/29 13:41:58;;;;;;;13.85;9.25;;;;;;;;;;4945491;29;20056;-80
2022/03/29 13:44:27;;;;;;;12.40;8.88;;;;;;;;;;4947200;29;20130;-78
2022/03/29 13:46:55;;;;;;;15.65;8.93;;;;;;;;;;4947180;29;20074;-80
2022/03/29 13:49:25;;;;;;;13.25;9.70;;;;;;;;;;4946621;29;20103;-80
2022/03/29 13:51:53;;;;;;;13.88;9.02;;;;;;;;;;4945551;29;20078;-80
2022/03/29 13:54:22;;;;;;;13.00;8.35;;;;;;;;;;4945010;29;20051;-81
2022/03/29 13:56:49;;;;;;;15.32;8.32;;;;;;;;;;4944551;29;20063;-78
2022/03/29 13:59:16;;;;;;;14.35;8.43;;;;;;;;;;4944872;29;20099;-81
2022/03/29 14:01:45;;;;;;;11.32;8.18;;;;;;;;;;4948236;29;20122;-81
2022/03/29 14:04:13;;;;;;;14.75;8.18;;;;;;;;;;4949124;29;20059;-78
2022/03/29 14:06:39;;;;;;;12.93;7.10;;;;;;;;;;4948342;29;20088;-81
2022/03/29 14:09:06;;;;;;;12.60;7.53;;;;;;;;;;4946843;29;20074;-81
2022/03/29 14:11:33;;;;;;;15.32;7.93;;;;;;;;;;4945900;29;20052;-81
2022/03/29 14:14:00;;;;;;;14.57;7.72;;;;;;;;;;4946931;29;20075;-79
2022/03/29 14:16:27;;;;;;;10.70;6.95;;;;;;;;;;4945444;29;20047;-80
2022/03/29 14:18:54;;;;;;;14.57;8.20;;;;;;;;;;4947099;29;20048;-82
2022/03/29 14:21:23;;;;;;;13.25;7.60;;;;;;;;;;4950406;29;20052;-80
2022/03/29 14:23:50;;;;;;;12.35;7.78;;;;;;;;;;4954416;29;20063;-81
2022/03/29 14:26:17;;;;;;;10.80;7.15;;;;;;;;;;4953319;29;20039;-80
2022/03/29 14:28:44;;;;;;;10.35;7.18;;;;;;;;;;4951381;29;20138;-82
2022/03/29 14:31:11;;;;;;;14.27;8.68;;;;;;;;;;4953131;29;20047;-81
2022/03/29 14:33:38;;;;;;;13.60;7.47;;;;;;;;;;4952301;29;20091;-80
2022/03/29 14:36:06;;;;;;;14.05;8.25;;;;;;;;;;4948652;29;20056;-80
2022/03/29 14:38:35;;;;;;;13.02;7.60;;;;;;;;;;4949557;29;20048;-81